Time;durP1;ratioP1;P1;durP2;ratioP2;P2;SDS_P1;SDS_P2;PMS_P1;PMS_P2;Temp;Humidity;BMP_temperature;BMP_pressure;BME280_temperature;BME280_humidity;BME280_pressure;Samples;Min_cycle;Max_cycle;Signal;HPM_P1;HPM_P2
2023/08/20 00:00:33;;;;;;;9.13;8.50;;;25.80;99.90;;;;;;4906745;29;20475;-50
2023/08/20 00:03:04;;;;;;;9.07;8.33;;;25.80;99.90;;;;;;4907405;29;21101;-50
2023/08/20 00:05:32;;;;;;;8.00;7.40;;;25.80;99.90;;;;;;4909444;29;20472;-50
2023/08/20 00:07:59;;;;;;;9.20;8.50;;;25.70;99.90;;;;;;4907063;29;21087;-48
2023/08/20 00:10:27;;;;;;;9.00;8.30;;;25.70;99.90;;;;;;4908528;29;20470;-49
2023/08/20 00:12:54;;;;;;;8.90;8.20;;;25.70;99.90;;;;;;4911534;29;20479;-48
2023/08/20 00:15:22;;;;;;;9.77;9.07;;;25.70;99.90;;;;;;4909422;29;20471;-47
2023/08/20 00:17:49;;;;;;;8.90;8.30;;;25.70;99.90;;;;;;4912259;29;20470;-50
2023/08/20 00:20:16;;;;;;;9.80;9.03;;;25.70;99.90;;;;;;4910867;29;20471;-50
2023/08/20 00:22:45;;;;;;;9.60;8.90;;;25.70;99.90;;;;;;4910605;29;20498;-54
2023/08/20 00:25:13;;;;;;;9.83;8.80;;;25.70;99.90;;;;;;4909978;29;20491;-50
2023/08/20 00:27:41;;;;;;;9.47;8.70;;;25.70;99.90;;;;;;4906044;29;20839;-50
2023/08/20 00:30:09;;;;;;;8.73;8.03;;;25.60;99.90;;;;;;4903402;29;20464;-52
2023/08/20 00:32:36;;;;;;;8.07;7.47;;;25.60;99.90;;;;;;4909486;29;20986;-47
2023/08/20 00:35:03;;;;;;;7.93;7.37;;;25.60;99.90;;;;;;4909744;29;21252;-50
2023/08/20 00:37:30;;;;;;;9.80;8.90;;;25.60;99.90;;;;;;4908769;29;20955;-52
2023/08/20 00:39:58;;;;;;;10.03;9.33;;;25.60;99.90;;;;;;4908905;29;20478;-49
2023/08/20 00:42:25;;;;;;;9.53;8.67;;;25.60;99.90;;;;;;4910431;29;20951;-50
2023/08/20 00:44:53;;;;;;;9.90;9.13;;;25.60;99.90;;;;;;4909624;29;21034;-48
2023/08/20 00:47:21;;;;;;;10.27;9.47;;;25.50;99.90;;;;;;4912714;29;20872;-49
2023/08/20 00:49:48;;;;;;;8.23;7.60;;;25.50;99.90;;;;;;4911717;29;20889;-47
2023/08/20 00:52:17;;;;;;;9.23;8.63;;;25.50;99.90;;;;;;4912717;29;20470;-48
2023/08/20 00:54:45;;;;;;;9.27;8.57;;;25.50;99.90;;;;;;4910483;29;20482;-49
2023/08/20 00:57:14;;;;;;;8.70;8.10;;;25.50;99.90;;;;;;4914487;29;20482;-49
2023/08/20 00:59:41;;;;;;;9.23;8.40;;;25.50;99.90;;;;;;4910938;29;20467;-48
2023/08/20 01:02:09;;;;;;;9.37;8.67;;;25.50;99.90;;;;;;4910454;29;20463;-48
2023/08/20 01:04:36;;;;;;;10.77;9.87;;;25.50;99.90;;;;;;4926214;23;20989;-54
2023/08/20 01:07:11;;;;;;;9.90;9.10;;;25.50;99.90;;;;;;4910237;29;20493;-55
2023/08/20 01:09:49;;;;;;;9.73;8.93;;;25.50;99.90;;;;;;4912199;29;20476;-51
2023/08/20 01:12:18;;;;;;;10.13;9.37;;;25.50;99.90;;;;;;4911724;29;20486;-52
2023/08/20 01:14:44;;;;;;;8.27;7.60;;;25.40;99.90;;;;;;4910640;29;21023;-53
2023/08/20 01:17:12;;;;;;;9.67;8.93;;;25.40;99.90;;;;;;4910733;29;20487;-54
2023/08/20 01:19:39;;;;;;;8.53;7.93;;;25.40;99.90;;;;;;4911265;29;20482;-54
2023/08/20 01:22:38;;;;;;;9.00;8.20;;;25.40;99.90;;;;;;4909326;29;20472;-53
2023/08/20 01:25:15;;;;;;;10.03;9.30;;;25.40;99.90;;;;;;4908198;29;20467;-55
2023/08/20 01:27:53;;;;;;;8.27;7.57;;;25.30;99.90;;;;;;4909376;29;20955;-53
2023/08/20 01:30:22;;;;;;;9.03;8.37;;;25.40;99.90;;;;;;4909674;29;20475;-54
2023/08/20 01:32:50;;;;;;;10.33;9.33;;;25.30;99.90;;;;;;4910934;29;20503;-51
2023/08/20 01:35:18;;;;;;;9.53;8.73;;;25.30;99.90;;;;;;4913379;29;20463;-54
2023/08/20 01:37:45;;;;;;;8.73;8.03;;;25.30;99.90;;;;;;4909557;29;20462;-55
2023/08/20 01:40:13;;;;;;;9.30;8.60;;;25.30;99.90;;;;;;4907962;29;20464;-52
2023/08/20 01:42:40;;;;;;;9.87;9.07;;;25.30;99.90;;;;;;4910470;29;20546;-56
2023/08/20 01:45:08;;;;;;;9.60;8.80;;;25.30;99.90;;;;;;4909897;29;20479;-52
2023/08/20 01:47:36;;;;;;;9.40;8.77;;;25.30;99.90;;;;;;4908129;29;20995;-52
2023/08/20 01:50:04;;;;;;;9.03;8.33;;;25.30;99.90;;;;;;4910571;29;20482;-51
2023/08/20 01:52:30;;;;;;;9.10;8.30;;;25.30;99.90;;;;;;4909857;29;20555;-54
2023/08/20 01:54:58;;;;;;;9.40;8.70;;;25.30;99.90;;;;;;4906487;29;20978;-53
2023/08/20 01:57:25;;;;;;;8.50;7.80;;;25.30;99.90;;;;;;4911341;29;20882;-53
2023/08/20 01:59:52;;;;;;;8.77;8.07;;;25.30;99.90;;;;;;4915363;29;20466;-53
2023/08/20 02:02:18;;;;;;;9.90;9.00;;;25.20;99.90;;;;;;4912305;29;20463;-51
2023/08/20 02:04:47;;;;;;;9.67;8.90;;;25.20;99.90;;;;;;4907656;29;20498;-51
2023/08/20 02:07:13;;;;;;;8.50;7.87;;;25.20;99.90;;;;;;4908772;29;20967;-51
2023/08/20 02:09:40;;;;;;;11.03;10.13;;;25.20;99.90;;;;;;4912445;29;20463;-52
2023/08/20 02:12:07;;;;;;;9.27;8.47;;;25.20;99.90;;;;;;4912934;29;20962;-55
2023/08/20 02:14:34;;;;;;;8.80;8.10;;;25.20;99.90;;;;;;4909526;29;20474;-56
2023/08/20 02:17:01;;;;;;;8.43;7.83;;;25.20;99.90;;;;;;4907422;29;20466;-51
2023/08/20 02:19:28;;;;;;;8.53;7.83;;;25.20;99.90;;;;;;4913895;29;20495;-54
2023/08/20 02:21:56;;;;;;;8.73;8.13;;;25.20;99.90;;;;;;4911281;29;21041;-51
2023/08/20 02:24:23;;;;;;;8.70;8.10;;;25.10;99.90;;;;;;4913078;29;20891;-53
2023/08/20 02:26:50;;;;;;;8.30;7.70;;;25.10;99.90;;;;;;4908747;29;20475;-53
2023/08/20 02:29:17;;;;;;;9.60;8.90;;;25.10;99.90;;;;;;4910563;29;20944;-54
2023/08/20 02:31:44;;;;;;;8.83;8.20;;;25.10;99.90;;;;;;4904497;29;20466;-55
2023/08/20 02:34:10;;;;;;;8.70;8.00;;;25.10;99.90;;;;;;4911697;29;20479;-54
2023/08/20 02:36:37;;;;;;;7.87;7.17;;;25.10;99.90;;;;;;4910861;29;20470;-49
2023/08/20 02:39:07;;;;;;;9.43;8.73;;;25.10;99.90;;;;;;4908240;29;20471;-54
2023/08/20 02:41:34;;;;;;;9.27;8.50;;;25.10;99.90;;;;;;4909386;29;20499;-51
2023/08/20 02:44:01;;;;;;;8.80;7.97;;;25.10;99.90;;;;;;4909037;29;20487;-54
2023/08/20 02:46:27;;;;;;;9.13;8.43;;;25.10;99.90;;;;;;4907853;29;20479;-54
2023/08/20 02:48:54;;;;;;;9.50;8.80;;;25.10;99.90;;;;;;4909222;29;20468;-53
2023/08/20 02:51:21;;;;;;;9.30;8.50;;;25.10;99.90;;;;;;4910876;29;20479;-52
2023/08/20 02:53:46;;;;;;;8.90;8.20;;;25.10;99.90;;;;;;4911108;29;20466;-50
2023/08/20 02:56:15;;;;;;;8.73;8.13;;;25.00;99.90;;;;;;4907125;29;20452;-53
2023/08/20 02:58:41;;;;;;;9.20;8.50;;;25.00;99.90;;;;;;4905714;29;20200;-51
2023/08/20 03:01:18;;;;;;;8.63;8.03;;;25.00;99.90;;;;;;4903024;29;20459;-51
2023/08/20 03:03:44;;;;;;;8.50;7.80;;;25.00;99.90;;;;;;4905779;29;20491;-53
2023/08/20 03:06:11;;;;;;;9.00;8.37;;;25.00;99.90;;;;;;4905672;29;20472;-52
2023/08/20 03:08:38;;;;;;;8.87;8.27;;;25.00;99.90;;;;;;4904282;29;20468;-55
2023/08/20 03:11:04;;;;;;;9.57;8.77;;;25.00;99.90;;;;;;4906390;29;20471;-53
2023/08/20 03:13:32;;;;;;;9.10;8.40;;;25.00;99.90;;;;;;4906260;29;20478;-52
2023/08/20 03:15:59;;;;;;;7.60;7.00;;;25.00;99.90;;;;;;4904599;29;20827;-51
2023/08/20 03:18:26;;;;;;;9.30;8.60;;;25.00;99.90;;;;;;4904387;29;20471;-55
2023/08/20 03:20:55;;;;;;;8.87;8.27;;;25.00;99.90;;;;;;4911722;29;20894;-50
2023/08/20 03:23:22;;;;;;;7.80;7.20;;;25.00;99.90;;;;;;4911056;29;20479;-51
2023/08/20 03:25:48;;;;;;;7.20;6.70;;;25.00;99.90;;;;;;4911503;29;21803;-53
2023/08/20 03:28:15;;;;;;;9.10;8.40;;;25.00;99.90;;;;;;4913403;29;20469;-51
2023/08/20 03:30:44;;;;;;;8.27;7.63;;;25.00;99.90;;;;;;4907969;29;20921;-52
2023/08/20 03:33:10;;;;;;;9.30;8.50;;;24.90;99.90;;;;;;4911878;29;20465;-51
2023/08/20 03:35:37;;;;;;;7.73;7.13;;;25.00;99.90;;;;;;4911207;29;20547;-51
2023/08/20 03:38:04;;;;;;;8.60;8.00;;;24.90;99.90;;;;;;4904665;29;20922;-51
2023/08/20 03:40:31;;;;;;;9.23;8.53;;;24.90;99.90;;;;;;4910757;29;20813;-50
2023/08/20 03:42:57;;;;;;;8.40;7.80;;;24.90;99.90;;;;;;4915512;29;20478;-50
2023/08/20 03:45:24;;;;;;;7.83;7.23;;;24.90;99.90;;;;;;4909044;29;20935;-51
2023/08/20 03:47:52;;;;;;;9.40;8.70;;;24.90;99.90;;;;;;4909361;29;20474;-50
2023/08/20 03:50:19;;;;;;;9.13;8.37;;;24.90;99.90;;;;;;4905220;29;20467;-52
2023/08/20 03:52:46;;;;;;;7.97;7.37;;;24.90;99.90;;;;;;4909535;29;20588;-50
2023/08/20 03:55:12;;;;;;;7.50;7.00;;;24.90;99.90;;;;;;4910429;29;21053;-51
2023/08/20 03:57:39;;;;;;;8.73;8.03;;;24.90;99.90;;;;;;4912369;29;20954;-53
2023/08/20 04:00:09;;;;;;;8.40;7.80;;;24.90;99.90;;;;;;4906898;29;20494;-51
2023/08/20 04:02:36;;;;;;;7.77;7.17;;;24.90;99.90;;;;;;4907128;29;20549;-54
2023/08/20 04:05:05;;;;;;;9.10;8.40;;;24.80;99.90;;;;;;4906610;29;20491;-51
2023/08/20 04:07:31;;;;;;;8.47;7.87;;;24.80;99.90;;;;;;4908261;29;20869;-50
2023/08/20 04:09:58;;;;;;;8.00;7.40;;;24.80;99.90;;;;;;4906334;29;20475;-55
2023/08/20 04:12:25;;;;;;;8.50;7.80;;;24.80;99.90;;;;;;4908718;29;21008;-53
2023/08/20 04:14:52;;;;;;;7.33;6.83;;;24.80;99.90;;;;;;4908524;29;20473;-51
2023/08/20 04:17:18;;;;;;;8.50;7.90;;;24.80;99.90;;;;;;4910676;29;20469;-54
2023/08/20 04:19:46;;;;;;;8.10;7.50;;;24.80;99.90;;;;;;4913347;29;20916;-54
2023/08/20 04:22:14;;;;;;;7.80;7.10;;;24.80;99.90;;;;;;4911014;29;20652;-52
2023/08/20 04:24:40;;;;;;;8.07;7.47;;;24.80;99.90;;;;;;4905155;29;20487;-53
2023/08/20 04:27:07;;;;;;;8.63;8.00;;;24.80;99.90;;;;;;4910328;29;21052;-54
2023/08/20 04:29:34;;;;;;;8.57;7.87;;;24.80;99.90;;;;;;4910930;29;20466;-53
2023/08/20 04:32:01;;;;;;;7.47;6.97;;;24.80;99.90;;;;;;4910361;29;20467;-54
2023/08/20 04:34:27;;;;;;;8.03;7.43;;;24.80;99.90;;;;;;4911664;29;20467;-51
2023/08/20 04:36:54;;;;;;;9.10;8.40;;;24.80;99.90;;;;;;4910822;29;21104;-50
2023/08/20 04:39:22;;;;;;;7.90;7.30;;;24.80;99.90;;;;;;4909583;29;20817;-54
2023/08/20 04:41:49;;;;;;;8.30;7.70;;;24.80;99.90;;;;;;4910785;29;20464;-53
2023/08/20 04:44:15;;;;;;;8.00;7.43;;;24.80;99.90;;;;;;4911197;29;20541;-54
2023/08/20 04:46:43;;;;;;;7.30;6.77;;;24.70;99.90;;;;;;4908846;29;20478;-53
2023/08/20 04:49:10;;;;;;;7.27;6.77;;;24.80;99.90;;;;;;4914271;29;20470;-53
2023/08/20 04:51:36;;;;;;;7.80;7.17;;;24.80;99.90;;;;;;4907884;29;20474;-53
2023/08/20 04:54:04;;;;;;;8.17;7.50;;;24.80;99.90;;;;;;4913094;29;20467;-52
2023/08/20 04:56:32;;;;;;;7.70;7.10;;;24.80;99.90;;;;;;4911584;29;20467;-51
2023/08/20 04:58:59;;;;;;;8.83;8.17;;;24.70;99.90;;;;;;4915254;29;20454;-51
2023/08/20 05:01:25;;;;;;;8.37;7.77;;;24.70;99.90;;;;;;4911077;29;20460;-52
2023/08/20 05:03:52;;;;;;;8.67;7.97;;;24.70;99.90;;;;;;4913816;29;20549;-51
2023/08/20 05:06:19;;;;;;;7.73;7.13;;;24.70;99.90;;;;;;4912299;29;20481;-51
2023/08/20 05:08:45;;;;;;;8.00;7.40;;;24.70;99.90;;;;;;4914508;29;20459;-54
2023/08/20 05:11:12;;;;;;;7.80;7.17;;;24.70;99.90;;;;;;4908397;29;20467;-50
2023/08/20 05:13:40;;;;;;;8.60;7.90;;;24.70;99.90;;;;;;4912050;29;20478;-50
2023/08/20 05:16:07;;;;;;;7.90;7.40;;;24.70;99.90;;;;;;4907094;29;20472;-53
2023/08/20 05:18:33;;;;;;;8.57;7.97;;;24.70;99.90;;;;;;4911121;29;20502;-52
2023/08/20 05:21:00;;;;;;;8.10;7.37;;;24.70;99.90;;;;;;4909939;29;20461;-50
2023/08/20 05:23:27;;;;;;;8.33;7.63;;;24.70;99.90;;;;;;4907825;29;20471;-51
2023/08/20 05:25:53;;;;;;;7.90;7.30;;;24.70;99.90;;;;;;4908960;29;20487;-54
2023/08/20 05:28:20;;;;;;;8.10;7.50;;;24.70;99.90;;;;;;4911275;29;20466;-53
2023/08/20 05:30:56;;;;;;;8.40;7.70;;;24.70;99.90;;;;;;4905008;29;20471;-53
2023/08/20 05:33:22;;;;;;;7.60;7.00;;;24.70;99.90;;;;;;4907419;29;20498;-54
2023/08/20 05:35:49;;;;;;;7.93;7.33;;;24.70;99.90;;;;;;4910032;29;20542;-52
2023/08/20 05:38:16;;;;;;;8.57;7.80;;;24.70;99.90;;;;;;4908941;29;20994;-55
2023/08/20 05:40:43;;;;;;;8.37;7.77;;;24.70;99.90;;;;;;4911396;29;21053;-50
2023/08/20 05:43:10;;;;;;;8.53;7.83;;;24.70;99.90;;;;;;4907984;29;20947;-52
2023/08/20 05:45:37;;;;;;;8.33;7.77;;;24.60;99.90;;;;;;4904289;29;20483;-52
2023/08/20 05:48:05;;;;;;;9.37;8.67;;;24.60;99.90;;;;;;4909489;29;20467;-51
2023/08/20 05:50:32;;;;;;;7.70;7.10;;;24.60;99.90;;;;;;4912955;29;20932;-53
2023/08/20 05:52:59;;;;;;;8.40;7.77;;;24.70;99.90;;;;;;4910198;29;20741;-54
2023/08/20 05:55:25;;;;;;;8.23;7.73;;;24.60;99.90;;;;;;4906678;29;20964;-53
2023/08/20 05:57:52;;;;;;;8.20;7.60;;;24.60;99.90;;;;;;4902998;29;20467;-55
2023/08/20 06:00:19;;;;;;;7.87;7.27;;;24.60;99.90;;;;;;4904653;29;20471;-56
2023/08/20 06:02:45;;;;;;;6.70;6.20;;;24.60;99.90;;;;;;4910867;29;20560;-53
2023/08/20 06:05:13;;;;;;;8.33;7.63;;;24.60;99.90;;;;;;4909159;29;20494;-54
2023/08/20 06:07:41;;;;;;;7.90;7.30;;;24.60;99.90;;;;;;4911979;29;20469;-54
2023/08/20 06:10:08;;;;;;;6.87;6.37;;;24.60;99.90;;;;;;4907865;29;20621;-53
2023/08/20 06:12:35;;;;;;;7.60;7.00;;;24.60;99.90;;;;;;4911165;29;20751;-52
2023/08/20 06:15:02;;;;;;;7.07;6.53;;;24.60;99.90;;;;;;4909635;29;20478;-50
2023/08/20 06:17:28;;;;;;;7.93;7.33;;;24.60;99.90;;;;;;4907862;29;20468;-53
2023/08/20 06:19:55;;;;;;;8.13;7.43;;;24.60;99.90;;;;;;4909006;29;20466;-54
2023/08/20 06:22:23;;;;;;;7.97;7.37;;;24.60;99.90;;;;;;4905758;29;20687;-56
2023/08/20 06:24:50;;;;;;;7.60;7.10;;;24.60;99.90;;;;;;4908311;29;20488;-54
2023/08/20 06:27:17;;;;;;;7.50;6.97;;;24.60;99.90;;;;;;4910594;29;20825;-53
2023/08/20 06:29:43;;;;;;;8.23;7.63;;;24.60;99.90;;;;;;4910656;29;20475;-52
2023/08/20 06:32:10;;;;;;;7.90;7.27;;;24.60;99.90;;;;;;4910051;29;21002;-52
2023/08/20 06:34:37;;;;;;;6.93;6.43;;;24.60;99.90;;;;;;4912847;29;20476;-52
2023/08/20 06:37:04;;;;;;;7.60;7.03;;;24.60;99.90;;;;;;4910147;29;20498;-54
2023/08/20 06:39:32;;;;;;;7.10;6.60;;;24.60;99.90;;;;;;4907849;29;20468;-53
2023/08/20 06:41:58;;;;;;;7.60;7.00;;;24.60;99.90;;;;;;4908422;29;20464;-54
2023/08/20 06:44:25;;;;;;;7.53;6.97;;;24.60;99.90;;;;;;4907115;29;20813;-52
2023/08/20 06:46:52;;;;;;;7.73;7.13;;;24.50;99.90;;;;;;4905172;29;20948;-53
2023/08/20 06:49:18;;;;;;;6.97;6.47;;;24.60;99.90;;;;;;4906749;29;21648;-53
2023/08/20 06:51:45;;;;;;;7.77;7.20;;;24.60;99.90;;;;;;4905868;29;20464;-54
2023/08/20 06:54:12;;;;;;;6.70;6.20;;;24.60;99.90;;;;;;4907940;29;20998;-54
2023/08/20 06:56:40;;;;;;;7.83;7.23;;;24.60;99.90;;;;;;4906686;29;20523;-54
2023/08/20 06:59:07;;;;;;;7.37;6.77;;;24.50;99.90;;;;;;4907584;29;20471;-54
2023/08/20 07:01:34;;;;;;;7.67;7.07;;;24.50;99.90;;;;;;4907128;29;20459;-53
2023/08/20 07:04:00;;;;;;;8.10;7.50;;;24.50;99.90;;;;;;4908667;29;20478;-55
2023/08/20 07:06:27;;;;;;;7.13;6.63;;;24.50;99.90;;;;;;4905970;29;20866;-51
2023/08/20 07:08:54;;;;;;;7.00;6.50;;;24.50;99.90;;;;;;4906192;29;20562;-53
2023/08/20 07:11:21;;;;;;;7.97;7.33;;;24.50;99.90;;;;;;4908857;29;20463;-54
2023/08/20 07:13:49;;;;;;;8.27;7.60;;;24.50;99.90;;;;;;4909334;29;20484;-51
2023/08/20 07:16:15;;;;;;;7.07;6.53;;;24.50;99.90;;;;;;4905870;29;20472;-51
2023/08/20 07:18:42;;;;;;;7.40;6.83;;;24.50;99.90;;;;;;4907984;29;20467;-53
2023/08/20 07:21:09;;;;;;;7.40;6.80;;;24.50;99.90;;;;;;4907095;29;20469;-55
2023/08/20 07:23:35;;;;;;;6.87;6.37;;;24.50;99.90;;;;;;4910926;29;20467;-54
2023/08/20 07:26:06;;;;;;;7.53;7.03;;;24.50;99.90;;;;;;4906869;29;20492;-51
2023/08/20 07:31:15;;;;;;;7.13;6.53;;;24.50;99.90;;;;;;4904202;29;20788;-51
2023/08/20 07:33:42;;;;;;;7.60;7.10;;;24.50;99.90;;;;;;4909094;29;20471;-51
2023/08/20 07:36:09;;;;;;;7.70;7.10;;;24.50;99.90;;;;;;4912649;29;20474;-52
2023/08/20 07:38:37;;;;;;;10.63;9.73;;;24.50;99.90;;;;;;4910208;29;20628;-55
2023/08/20 07:41:04;;;;;;;8.83;8.13;;;24.50;99.90;;;;;;4903640;29;20879;-52
2023/08/20 07:43:30;;;;;;;10.40;9.40;;;24.50;99.90;;;;;;4908363;29;20465;-53
2023/08/20 07:45:57;;;;;;;12.13;11.10;;;24.50;99.90;;;;;;4904161;29;20485;-54
2023/08/20 07:48:25;;;;;;;13.50;12.13;;;24.50;99.90;;;;;;4903627;29;20480;-50
2023/08/20 07:50:52;;;;;;;12.70;11.60;;;24.50;99.90;;;;;;4907507;29;20878;-51
2023/08/20 07:53:18;;;;;;;14.17;12.97;;;24.50;99.90;;;;;;4909801;29;20475;-55
2023/08/20 07:55:45;;;;;;;12.87;11.67;;;24.50;99.90;;;;;;4908195;29;20464;-57
2023/08/20 07:58:12;;;;;;;17.33;15.80;;;24.50;99.90;;;;;;4910918;29;20490;-53
2023/08/20 08:00:39;;;;;;;18.33;16.53;;;24.50;99.90;;;;;;4909404;29;20474;-49
2023/08/20 08:03:05;;;;;;;16.63;15.20;;;24.50;99.90;;;;;;4909577;29;20951;-51
2023/08/20 08:05:33;;;;;;;14.13;12.90;;;24.50;99.90;;;;;;4912052;29;20495;-52
2023/08/20 08:08:00;;;;;;;14.13;12.73;;;24.50;99.90;;;;;;4912019;29;21046;-50
2023/08/20 08:10:27;;;;;;;13.73;12.50;;;24.50;99.90;;;;;;4907994;29;20462;-53
2023/08/20 08:12:54;;;;;;;15.47;14.07;;;24.50;99.90;;;;;;4910515;29;20475;-50
2023/08/20 08:15:20;;;;;;;15.60;14.30;;;24.50;99.90;;;;;;4909795;29;20960;-50
2023/08/20 08:17:47;;;;;;;16.50;14.97;;;24.50;99.90;;;;;;4909982;29;20455;-56
2023/08/20 08:20:14;;;;;;;16.47;14.83;;;24.50;99.90;;;;;;4905834;29;20485;-52
2023/08/20 08:22:42;;;;;;;14.27;12.33;;;24.50;99.90;;;;;;4908476;29;20971;-54
2023/08/20 08:25:08;;;;;;;14.33;12.93;;;24.50;99.90;;;;;;4904187;29;21024;-52
2023/08/20 08:27:35;;;;;;;14.83;13.53;;;24.50;99.90;;;;;;4907634;29;20502;-50
2023/08/20 08:30:02;;;;;;;14.10;12.80;;;24.50;99.90;;;;;;4908176;29;20466;-51
2023/08/20 08:32:29;;;;;;;15.17;13.83;;;24.50;99.90;;;;;;4906293;29;20467;-52
2023/08/20 08:34:56;;;;;;;14.77;13.47;;;24.50;99.90;;;;;;4910009;29;20862;-55
2023/08/20 08:37:22;;;;;;;15.50;14.00;;;24.50;99.90;;;;;;4911219;29;20468;-52
2023/08/20 08:39:50;;;;;;;13.30;12.20;;;24.50;99.90;;;;;;4909994;29;20952;-53
2023/08/20 08:42:20;;;;;;;14.50;13.30;;;24.50;99.90;;;;;;4909747;29;20915;-53
2023/08/20 08:44:47;;;;;;;14.80;13.50;;;24.50;99.90;;;;;;4909016;29;20478;-52
2023/08/20 08:47:14;;;;;;;14.33;13.10;;;24.50;99.90;;;;;;4910732;29;20462;-52
2023/08/20 08:49:41;;;;;;;14.50;13.23;;;24.50;99.90;;;;;;4908023;29;20694;-54
2023/08/20 08:52:09;;;;;;;14.17;12.77;;;24.50;99.90;;;;;;4903235;29;20470;-51
2023/08/20 08:54:36;;;;;;;17.97;16.23;;;24.50;99.90;;;;;;4912439;29;20466;-54
2023/08/20 08:57:05;;;;;;;18.07;16.30;;;24.50;99.90;;;;;;4912369;29;20462;-54
2023/08/20 08:59:32;;;;;;;21.40;17.70;;;24.50;99.90;;;;;;4905978;29;20494;-54
2023/08/20 09:01:59;;;;;;;20.13;15.90;;;24.50;99.90;;;;;;4906552;29;20459;-54
2023/08/20 09:04:26;;;;;;;18.87;16.97;;;24.50;99.90;;;;;;4911055;29;20482;-54
2023/08/20 09:06:57;;;;;;;18.50;16.50;;;24.50;99.90;;;;;;4911999;29;20501;-54
2023/08/20 09:09:23;;;;;;;18.00;16.20;;;24.60;99.90;;;;;;4913349;29;20871;-55
2023/08/20 09:11:50;;;;;;;17.50;15.90;;;24.50;99.90;;;;;;4912272;29;20474;-53
2023/08/20 09:14:28;;;;;;;16.83;15.27;;;24.50;99.90;;;;;;4913329;29;20467;-54
2023/08/20 09:16:56;;;;;;;18.50;16.80;;;24.50;99.90;;;;;;4908276;29;20745;-54
2023/08/20 09:19:23;;;;;;;18.07;16.47;;;24.50;99.90;;;;;;4905775;29;20475;-52
2023/08/20 09:21:53;;;;;;;19.47;17.70;;;24.50;99.90;;;;;;4905594;29;20972;-53
2023/08/20 09:24:26;;;;;;;20.27;18.20;;;24.50;99.90;;;;;;4908167;29;20515;-54
2023/08/20 09:26:58;;;;;;;21.33;19.20;;;24.50;99.90;;;;;;4906073;29;20491;-53
2023/08/20 09:29:26;;;;;;;20.93;18.93;;;24.50;99.90;;;;;;4908590;29;20555;-54
2023/08/20 09:32:01;;;;;;;19.73;17.87;;;24.50;99.90;;;;;;4900365;29;20466;-55
2023/08/20 09:34:37;;;;;;;21.60;19.70;;;24.50;99.90;;;;;;4907336;29;20868;-53
2023/08/20 09:37:04;;;;;;;19.70;17.90;;;24.50;99.90;;;;;;4905291;29;20991;-55
2023/08/20 09:39:31;;;;;;;19.93;18.13;;;24.60;99.90;;;;;;4907931;29;20476;-54
2023/08/20 09:41:59;;;;;;;20.53;18.57;;;24.50;99.90;;;;;;4903047;29;20471;-55
2023/08/20 09:44:33;;;;;;;20.37;18.60;;;24.60;99.90;;;;;;4906210;29;20468;-54
2023/08/20 09:47:00;;;;;;;19.80;17.77;;;24.50;99.90;;;;;;4902430;29;21003;-52
2023/08/20 09:49:30;;;;;;;18.30;16.53;;;24.60;99.90;;;;;;4906970;29;20468;-53
2023/08/20 09:51:59;;;;;;;17.50;15.80;;;24.60;99.90;;;;;;4905027;29;20475;-55
2023/08/20 09:54:33;;;;;;;21.20;19.10;;;24.50;99.90;;;;;;4906284;29;20466;-53
2023/08/20 09:57:02;;;;;;;17.53;15.73;;;24.60;99.90;;;;;;4899751;29;20471;-53
2023/08/20 09:59:31;;;;;;;19.47;17.67;;;24.60;99.90;;;;;;4901546;29;20553;-53
2023/08/20 10:01:58;;;;;;;19.60;17.80;;;24.60;99.90;;;;;;4899967;29;20480;-54
2023/08/20 10:04:25;;;;;;;19.80;18.03;;;24.50;99.90;;;;;;4903895;29;20472;-53
2023/08/20 10:06:55;;;;;;;19.47;17.67;;;24.60;99.90;;;;;;4907068;29;20510;-56
2023/08/20 10:09:22;;;;;;;18.93;17.27;;;24.50;99.90;;;;;;4906386;29;20462;-59
2023/08/20 10:11:49;;;;;;;20.00;18.10;;;24.60;99.90;;;;;;4908279;29;20483;-60
2023/08/20 10:14:16;;;;;;;17.67;16.13;;;24.60;99.90;;;;;;4904554;29;20470;-61
2023/08/20 10:16:44;;;;;;;16.73;15.20;;;24.60;99.90;;;;;;4907084;29;20471;-59
2023/08/20 10:19:11;;;;;;;16.57;14.97;;;24.60;99.90;;;;;;4911423;29;20784;-55
2023/08/20 10:21:45;;;;;;;18.67;17.07;;;24.60;99.90;;;;;;4907382;29;20463;-55
2023/08/20 10:24:18;;;;;;;16.93;15.43;;;24.60;99.90;;;;;;4909847;29;20477;-56
2023/08/20 10:26:46;;;;;;;17.80;16.10;;;24.60;99.90;;;;;;4909411;29;20512;-58
2023/08/20 10:29:41;;;;;;;17.47;15.97;;;24.60;99.90;;;;;;4905655;29;20472;-57
2023/08/20 10:32:11;;;;;;;18.80;16.80;;;24.70;99.90;;;;;;4904005;29;20797;-58
2023/08/20 10:34:39;;;;;;;15.70;14.43;;;24.70;99.90;;;;;;4908968;29;20614;-53
2023/08/20 10:37:14;;;;;;;16.03;14.63;;;24.70;99.90;;;;;;4906913;29;20482;-55
2023/08/20 10:39:42;;;;;;;16.17;14.77;;;24.80;99.90;;;;;;4908430;29;20552;-57
2023/08/20 10:42:25;;;;;;;17.03;15.63;;;24.80;99.90;;;;;;4909993;29;20555;-55
2023/08/20 10:45:03;;;;;;;18.07;16.47;;;24.80;99.90;;;;;;4901449;29;21149;-59
2023/08/20 10:47:38;;;;;;;16.17;14.77;;;24.80;99.90;;;;;;4906504;29;22267;-58
2023/08/20 10:50:06;;;;;;;17.33;15.93;;;24.90;99.90;;;;;;4911991;29;20447;-56
2023/08/20 10:52:33;;;;;;;15.53;14.17;;;24.90;99.90;;;;;;4906152;29;20943;-60
2023/08/20 10:55:01;;;;;;;17.93;16.10;;;24.90;99.90;;;;;;4907034;29;20462;-55
2023/08/20 10:57:34;;;;;;;17.80;16.30;;;24.90;99.90;;;;;;4908100;29;20475;-55
2023/08/20 11:00:09;;;;;;;15.10;13.90;;;25.00;99.90;;;;;;4908755;29;20962;-53
2023/08/20 11:02:37;;;;;;;16.50;15.00;;;25.00;99.90;;;;;;4909558;29;20493;-53
2023/08/20 11:05:04;;;;;;;16.20;14.80;;;25.00;99.90;;;;;;4907033;29;20468;-52
2023/08/20 11:07:34;;;;;;;16.63;15.20;;;25.00;99.90;;;;;;4908656;29;20487;-55
2023/08/20 11:10:03;;;;;;;16.53;15.07;;;25.00;99.90;;;;;;4909620;29;20550;-56
2023/08/20 11:12:30;;;;;;;16.63;15.23;;;25.10;99.90;;;;;;4909805;29;20478;-55
2023/08/20 11:15:01;;;;;;;16.00;14.60;;;25.10;99.90;;;;;;4905749;29;20520;-58
2023/08/20 11:17:28;;;;;;;16.03;14.43;;;25.10;99.90;;;;;;4906111;29;20462;-55
2023/08/20 11:19:56;;;;;;;17.30;15.70;;;25.10;99.90;;;;;;4901902;29;20820;-54
2023/08/20 11:22:22;;;;;;;16.93;15.43;;;25.10;99.90;;;;;;4909659;29;20478;-51
2023/08/20 11:24:49;;;;;;;16.70;15.33;;;25.20;99.90;;;;;;4907810;29;20932;-56
2023/08/20 11:27:16;;;;;;;14.90;13.70;;;25.20;99.90;;;;;;4905974;29;20491;-55
2023/08/20 11:29:43;;;;;;;16.23;14.83;;;25.20;99.90;;;;;;4909134;29;20464;-56
2023/08/20 11:32:10;;;;;;;16.30;15.00;;;25.20;99.90;;;;;;4906454;29;20472;-56
2023/08/20 11:34:38;;;;;;;15.73;14.43;;;25.20;99.90;;;;;;4910018;29;20463;-58
2023/08/20 11:37:06;;;;;;;16.60;15.20;;;25.30;99.90;;;;;;4905479;29;20542;-51
2023/08/20 11:39:33;;;;;;;16.27;14.77;;;25.30;99.90;;;;;;4909620;29;21119;-58
2023/08/20 11:42:01;;;;;;;16.37;14.97;;;25.30;99.90;;;;;;4908139;29;20447;-57
2023/08/20 11:44:28;;;;;;;15.43;14.20;;;25.30;99.90;;;;;;4906952;29;20823;-52
2023/08/20 11:46:55;;;;;;;16.60;15.20;;;25.30;99.90;;;;;;4902506;29;20486;-56
2023/08/20 11:49:28;;;;;;;17.40;15.90;;;25.30;99.90;;;;;;4905347;29;21425;-52
2023/08/20 11:51:57;;;;;;;15.47;14.17;;;25.40;99.90;;;;;;4902510;29;20494;-55
2023/08/20 11:54:25;;;;;;;16.67;15.33;;;25.40;99.90;;;;;;4908492;29;24156;-53
2023/08/20 11:56:53;;;;;;;15.80;14.40;;;25.40;99.90;;;;;;4905853;29;20967;-50
2023/08/20 11:59:21;;;;;;;14.67;13.47;;;25.40;99.90;;;;;;4905132;29;20824;-52
2023/08/20 12:01:51;;;;;;;15.43;14.20;;;25.50;99.90;;;;;;4905381;29;20471;-49
2023/08/20 12:04:18;;;;;;;15.00;13.80;;;25.50;99.90;;;;;;4896197;29;20483;-61
2023/08/20 12:06:45;;;;;;;15.50;14.23;;;25.50;99.90;;;;;;4899233;29;20836;-56
2023/08/20 12:09:21;;;;;;;15.80;14.50;;;25.50;99.90;;;;;;4902211;29;20468;-58
2023/08/20 12:11:55;;;;;;;15.33;14.03;;;25.50;99.90;;;;;;4903395;29;20523;-58
2023/08/20 12:14:22;;;;;;;15.20;13.80;;;25.50;99.90;;;;;;4906480;29;20836;-57
2023/08/20 12:16:50;;;;;;;16.03;14.73;;;25.50;99.90;;;;;;4902273;29;20479;-56
2023/08/20 12:19:17;;;;;;;15.30;13.90;;;25.50;99.90;;;;;;4907605;29;20464;-55
2023/08/20 12:21:44;;;;;;;13.77;12.67;;;25.50;99.90;;;;;;4901619;29;20479;-56
2023/08/20 12:24:11;;;;;;;14.40;13.10;;;25.50;99.90;;;;;;4899548;29;20475;-55
2023/08/20 12:26:39;;;;;;;14.00;12.90;;;25.60;99.90;;;;;;4909148;29;20561;-59
2023/08/20 12:29:07;;;;;;;13.73;12.63;;;25.60;99.90;;;;;;4908079;29;21285;-59
2023/08/20 12:31:34;;;;;;;15.00;13.10;;;25.60;99.90;;;;;;4907248;29;20474;-59
2023/08/20 12:34:01;;;;;;;12.73;11.73;;;25.60;99.90;;;;;;4908564;29;20459;-60
2023/08/20 12:36:28;;;;;;;15.00;13.80;;;25.60;99.90;;;;;;4909750;29;20478;-53
2023/08/20 12:38:55;;;;;;;13.10;12.00;;;25.60;99.90;;;;;;4913308;29;20933;-59
2023/08/20 12:41:22;;;;;;;13.80;12.70;;;25.60;99.90;;;;;;4912945;29;20476;-58
2023/08/20 12:43:49;;;;;;;14.60;13.40;;;25.60;99.90;;;;;;4914012;29;20468;-52